Time;durP1;ratioP1;P1;durP2;ratioP2;P2;SDS_P1;SDS_P2;PMS_P1;PMS_P2;Temp;Humidity;BMP_temperature;BMP_pressure;BME280_temperature;BME280_humidity;BME280_pressure;Samples;Min_cycle;Max_cycle;Signal;HPM_P1;HPM_P2
2023/03/30 00:04:21;;;;;;;0.00;0.00;;;;;;;3.99;97.10;99477.13;10167048;29;20072;-83
2023/03/30 00:09:22;;;;;;;1.13;0.10;;;;;;;4.32;97.10;99546.66;10168164;29;20135;-80
2023/03/30 00:14:28;;;;;;;0.00;0.00;;;;;;;3.60;96.95;99422.16;10167767;29;20052;-80
2023/03/30 00:19:29;;;;;;;0.13;0.00;;;;;;;3.99;96.48;99523.63;10168601;29;20085;-79
2023/03/30 00:24:30;;;;;;;0.03;0.00;;;;;;;3.32;97.18;99442.34;10188163;29;20160;-83
2023/03/30 00:29:31;;;;;;;0.00;0.00;;;;;;;3.89;97.67;99528.91;10191820;29;20106;-83
2023/03/30 00:34:32;;;;;;;0.10;0.00;;;;;;;2.83;97.44;99390.97;10167303;29;20063;-77
2023/03/30 00:39:33;;;;;;;0.20;0.00;;;;;;;3.51;97.27;99517.56;10182550;29;20063;-80
2023/03/30 00:45:07;;;;;;;0.10;0.00;;;;;;;3.72;98.01;99572.53;10201279;29;20043;-83
2023/03/30 00:50:08;;;;;;;0.00;0.00;;;;;;;3.22;97.42;99533.38;10176251;29;20416;-77
2023/03/30 00:55:11;;;;;;;0.00;0.00;;;;;;;3.08;95.95;99500.56;10177012;29;20542;-80
2023/03/30 01:00:14;;;;;;;0.00;0.00;;;;;;;3.55;96.32;99591.63;10212114;29;20052;-80
2023/03/30 01:05:15;;;;;;;0.30;0.00;;;;;;;2.99;95.62;99504.00;10210702;29;20130;-78
2023/03/30 01:10:16;;;;;;;0.00;0.00;;;;;;;3.15;96.05;99529.69;10212250;29;20499;-82
2023/03/30 01:15:17;;;;;;;0.05;0.00;;;;;;;3.56;95.00;99620.41;10211347;29;20047;-79
2023/03/30 01:20:46;;;;;;;0.00;0.00;;;;;;;3.53;94.43;99590.94;10171882;29;20064;-79
2023/03/30 01:26:05;;;;;;;0.05;0.00;;;;;;;3.66;94.25;99604.63;10171931;29;20140;-81
2023/03/30 01:31:06;;;;;;;0.05;0.00;;;;;;;3.63;94.06;99624.09;10171754;29;20040;-83
2023/03/30 01:36:22;;;;;;;0.10;0.00;;;;;;;3.55;93.70;99610.03;10171455;29;20048;-82
2023/03/30 01:41:36;;;;;;;0.75;0.15;;;;;;;3.65;94.05;99653.69;10171352;29;20052;-80
2023/03/30 01:46:47;;;;;;;0.17;0.00;;;;;;;3.43;94.08;99618.03;10171780;29;20055;-82
2023/03/30 01:52:12;;;;;;;0.28;0.03;;;;;;;3.66;93.60;99651.91;10170283;29;20071;-79
2023/03/30 01:57:19;;;;;;;0.20;0.05;;;;;;;3.49;93.68;99577.28;10171317;28;20484;-78
2023/03/30 02:02:23;;;;;;;0.25;0.10;;;;;;;3.12;94.27;99553.56;10170734;29;20420;-81
2023/03/30 02:07:30;;;;;;;0.55;0.10;;;;;;;3.45;94.97;99664.34;10185201;29;20042;-78
2023/03/30 02:12:32;;;;;;;0.35;0.10;;;;;;;3.13;94.46;99608.53;10177535;29;20118;-79
2023/03/30 02:17:34;;;;;;;0.30;0.03;;;;;;;3.24;94.33;99615.44;10185050;29;20056;-79
2023/03/30 02:22:35;;;;;;;0.52;0.10;;;;;;;3.42;94.47;99649.72;10170741;29;20044;-78
2023/03/30 02:27:37;;;;;;;0.98;0.10;;;;;;;3.45;94.24;99672.25;10169696;29;20135;-80
2023/03/30 02:32:52;;;;;;;0.50;0.30;;;;;;;3.03;95.40;99612.97;10170538;29;20408;-79
2023/03/30 02:38:08;;;;;;;1.25;0.50;;;;;;;3.49;95.15;99724.31;10168424;29;20163;-79
2023/03/30 02:43:27;;;;;;;1.40;0.70;;;;;;;3.55;95.13;99733.44;10174518;29;20040;-80
2023/03/30 02:48:51;;;;;;;1.20;0.63;;;;;;;3.51;94.60;99721.56;10206113;29;20538;-82
2023/03/30 02:54:24;;;;;;;2.47;0.90;;;;;;;3.48;94.93;99708.72;10169842;29;20053;-79
2023/03/30 02:59:57;;;;;;;2.40;1.00;;;;;;;3.45;94.97;99738.72;10173658;28;20048;-81
2023/03/30 03:05:03;;;;;;;1.50;0.80;;;;;;;3.27;94.21;99727.22;10194917;29;20039;-78
2023/03/30 03:10:05;;;;;;;1.80;0.98;;;;;;;3.12;94.00;99671.66;10203247;28;20039;-79
2023/03/30 03:15:06;;;;;;;2.88;0.90;;;;;;;3.54;93.25;99758.06;10181118;28;20524;-80
2023/03/30 03:20:10;;;;;;;3.13;0.85;;;;;;;2.61;93.17;99615.81;10201835;29;20420;-82
2023/03/30 03:25:10;;;;;;;3.45;0.70;;;;;;;3.05;92.95;99681.03;10181604;29;20127;-82
2023/03/30 03:30:12;;;;;;;1.20;0.60;;;;;;;3.17;92.69;99738.53;10168327;29;20098;-77
2023/03/30 03:35:13;;;;;;;1.30;0.50;;;;;;;3.22;91.90;99769.63;10167360;29;20040;-86
2023/03/30 03:40:14;;;;;;;2.40;0.82;;;;;;;3.48;92.55;99832.13;10168385;29;20040;-79
2023/03/30 03:45:14;;;;;;;1.80;0.73;;;;;;;3.67;91.75;99858.44;10167652;29;20154;-80
2023/03/30 03:50:15;;;;;;;1.30;0.63;;;;;;;3.06;91.80;99738.66;10168247;29;20069;-79
2023/03/30 03:55:16;;;;;;;1.60;0.90;;;;;;;3.51;91.52;99832.69;10167742;29;20044;-79
2023/03/30 04:00:17;;;;;;;2.33;1.10;;;;;;;3.37;91.19;99814.69;10167117;29;20044;-84
2023/03/30 04:05:18;;;;;;;2.10;1.10;;;;;;;3.78;90.53;99878.50;10168274;29;20130;-77
2023/03/30 04:10:20;;;;;;;2.28;1.60;;;;;;;3.78;90.09;99863.56;10166512;29;20127;-86
2023/03/30 04:15:20;;;;;;;3.13;1.90;;;;;;;4.02;89.70;99896.50;10163609;29;20067;-76
2023/03/30 04:20:22;;;;;;;5.30;2.72;;;;;;;3.66;89.35;99851.53;10158069;28;20064;-75
2023/03/30 04:25:24;;;;;;;3.95;2.75;;;;;;;3.91;88.83;99913.22;10165522;29;20052;-86
2023/03/30 04:30:25;;;;;;;4.55;3.72;;;;;;;3.82;88.63;99928.00;10165417;28;20044;-86
2023/03/30 04:35:26;;;;;;;5.38;4.63;;;;;;;2.80;88.14;99779.44;10165305;29;20043;-89
2023/03/30 04:40:26;;;;;;;5.28;4.07;;;;;;;3.98;87.26;99940.66;10165756;29;20103;-83
2023/03/30 04:45:28;;;;;;;6.40;4.20;;;;;;;3.56;87.18;99855.91;10160542;29;20051;-87
2023/03/30 04:50:29;;;;;;;6.25;3.92;;;;;;;4.40;85.95;99961.44;10176606;29;20090;-76
2023/03/30 04:55:30;;;;;;;5.90;4.47;;;;;;;4.80;84.15;99960.47;10173003;29;20514;-82
2023/03/30 05:00:32;;;;;;;8.65;3.75;;;;;;;4.82;83.17;99924.31;10195028;29;20146;-81
2023/03/30 05:05:33;;;;;;;4.50;3.10;;;;;;;4.99;80.98;99938.53;10206122;28;20047;-89
2023/03/30 05:10:34;;;;;;;5.88;3.63;;;;;;;4.35;80.80;99832.16;10205268;28;20558;-84
2023/03/30 05:15:34;;;;;;;5.88;3.30;;;;;;;5.65;80.42;99983.25;10206326;29;20130;-86
2023/03/30 05:20:35;;;;;;;5.05;2.90;;;;;;;5.83;79.05;99932.38;10206183;28;20415;-81
2023/03/30 05:25:36;;;;;;;3.70;2.50;;;;;;;5.75;77.85;99890.97;10205771;29;20043;-82
2023/03/30 05:30:37;;;;;;;4.65;3.05;;;;;;;6.69;76.62;99982.91;10210634;29;20043;-83
2023/03/30 05:35:38;;;;;;;6.60;3.35;;;;;;;6.42;75.86;99909.94;10212405;28;20036;-83
2023/03/30 05:40:39;;;;;;;6.18;3.70;;;;;;;6.77;74.22;99926.72;10212118;28;20048;-86
2023/03/30 05:45:42;;;;;;;3.85;2.85;;;;;;;7.19;73.61;100026.41;10211696;28;20050;-85
2023/03/30 05:50:43;;;;;;;5.67;3.17;;;;;;;7.30;72.94;100031.44;10210955;28;20050;-80
2023/03/30 05:55:46;;;;;;;4.25;2.95;;;;;;;6.94;71.46;100015.66;10211437;28;20050;-84
2023/03/30 06:00:48;;;;;;;5.32;2.47;;;;;;;6.77;70.96;99972.44;10211640;29;20043;-88
2023/03/30 06:05:52;;;;;;;4.05;2.70;;;;;;;6.37;71.11;99876.13;10211076;29;20090;-83
2023/03/30 06:10:54;;;;;;;4.63;2.92;;;;;;;7.31;70.17;100084.13;10210891;29;20040;-87
2023/03/30 06:15:55;;;;;;;4.88;3.30;;;;;;;6.79;71.26;100032.97;10210302;29;20040;-80
2023/03/30 06:20:56;;;;;;;5.90;3.50;;;;;;;7.15;69.84;100023.25;10210240;29;20059;-83
2023/03/30 06:25:58;;;;;;;4.35;3.38;;;;;;;7.82;67.60;100105.47;10210693;28;20122;-84
2023/03/30 06:31:01;;;;;;;4.90;3.65;;;;;;;7.86;66.38;100120.00;10210859;29;20093;-82
2023/03/30 06:36:03;;;;;;;4.57;3.20;;;;;;;7.23;66.47;100115.75;10210212;29;20455;-82
2023/03/30 06:41:07;;;;;;;4.70;3.42;;;;;;;6.48;65.66;100085.31;10210062;28;20097;-88
2023/03/30 06:46:08;;;;;;;4.40;3.15;;;;;;;6.49;65.35;100152.94;10210760;28;20126;-88
2023/03/30 06:51:11;;;;;;;7.05;4.10;;;;;;;6.15;66.05;100122.66;10210824;29;20039;-80
2023/03/30 06:56:13;;;;;;;7.70;4.03;;;;;;;6.12;66.32;100117.69;10210058;29;20407;-89
2023/03/30 07:01:15;;;;;;;5.97;3.92;;;;;;;6.19;67.08;100186.50;10209714;28;20085;-81
2023/03/30 07:06:16;;;;;;;8.27;4.18;;;;;;;5.47;67.14;100109.66;10210175;29;20046;-88
2023/03/30 07:11:16;;;;;;;8.93;4.68;;;;;;;5.82;67.82;100163.53;10209908;29;20040;-81
2023/03/30 07:16:17;;;;;;;6.00;4.30;;;;;;;5.54;67.66;100099.38;10208197;29;20515;-83
2023/03/30 07:21:18;;;;;;;7.20;4.30;;;;;;;5.66;67.81;100105.31;10208447;29;20043;-84
2023/03/30 07:26:19;;;;;;;6.50;4.07;;;;;;;6.20;68.08;100116.97;10208780;29;20142;-84
2023/03/30 07:31:20;;;;;;;6.53;4.18;;;;;;;7.15;64.72;100179.09;10209497;29;20043;-83
2023/03/30 07:36:21;;;;;;;5.63;4.05;;;;;;;6.76;64.07;100171.41;10209213;29;20051;-87
2023/03/30 07:41:23;;;;;;;5.38;3.58;;;;;;;6.38;64.10;100107.28;10208661;29;20101;-83
2023/03/30 07:46:26;;;;;;;9.25;4.07;;;;;;;6.66;63.55;100191.75;10223339;28;20090;-87
2023/03/30 07:51:27;;;;;;;9.95;5.95;;;;;;;6.33;63.69;100128.00;10207283;29;20549;-82
2023/03/30 07:56:27;;;;;;;6.07;4.45;;;;;;;7.07;62.90;100179.00;10208307;28;20040;-83
2023/03/30 08:01:28;;;;;;;7.32;4.65;;;;;;;6.86;61.43;100090.31;10207223;29;20055;-81
2023/03/30 08:06:29;;;;;;;8.05;5.60;;;;;;;7.36;61.99;100192.03;10207918;29;20415;-81
2023/03/30 08:11:30;;;;;;;7.22;4.50;;;;;;;7.28;62.12;100197.22;10207805;29;20126;-87
2023/03/30 08:16:31;;;;;;;6.38;4.32;;;;;;;6.94;62.02;100220.78;10208107;29;20064;-89
2023/03/30 08:21:32;;;;;;;7.45;4.78;;;;;;;6.14;62.20;100123.66;10208173;29;20048;-83
2023/03/30 08:26:35;;;;;;;9.40;5.50;;;;;;;6.14;62.21;100154.47;10206818;29;20094;-81
2023/03/30 08:31:36;;;;;;;7.65;4.78;;;;;;;6.15;59.93;100198.31;10206697;29;20050;-88
2023/03/30 08:36:37;;;;;;;7.00;4.00;;;;;;;6.17;60.08;100191.94;10207893;29;20475;-86
2023/03/30 08:42:11;;;;;;;6.57;4.80;;;;;;;6.35;59.52;100178.00;10206147;29;20074;-87
2023/03/30 08:47:25;;;;;;;7.28;4.88;;;;;;;6.73;59.13;100213.09;10207361;29;20055;-84
2023/03/30 08:52:26;;;;;;;8.45;4.70;;;;;;;6.27;59.63;100075.00;10205710;29;20562;-78
2023/03/30 08:57:57;;;;;;;9.30;4.57;;;;;;;6.95;58.32;100136.13;10206917;29;20044;-87
2023/03/30 09:03:31;;;;;;;6.32;4.68;;;;;;;7.65;58.67;100152.09;10210601;29;20138;-86
2023/03/30 09:08:32;;;;;;;4.80;3.53;;;;;;;8.24;58.04;100179.59;10209641;29;20075;-88
2023/03/30 09:13:35;;;;;;;5.82;3.67;;;;;;;8.54;56.13;100181.94;10213670;29;20423;-89
2023/03/30 09:18:42;;;;;;;5.72;3.15;;;;;;;8.61;55.39;100175.84;10212469;29;20542;-90
2023/03/30 09:23:43;;;;;;;5.63;3.50;;;;;;;8.18;54.83;100102.69;10212450;29;20036;-90
2023/03/30 09:29:05;;;;;;;5.85;3.72;;;;;;;8.72;55.05;100160.66;10213011;29;20487;-87
2023/03/30 09:34:12;;;;;;;5.28;3.55;;;;;;;8.90;54.60;100148.97;10212510;29;20549;-86
2023/03/30 09:39:20;;;;;;;8.70;3.75;;;;;;;8.49;53.84;100065.91;10212647;29;20044;-84
2023/03/30 09:44:32;;;;;;;5.47;3.30;;;;;;;9.19;54.62;100146.88;10213152;29;20522;-91
2023/03/30 09:49:38;;;;;;;6.03;3.33;;;;;;;8.93;53.55;100054.25;10212010;28;20474;-87
2023/03/30 09:54:40;;;;;;;5.15;3.15;;;;;;;9.20;53.07;100091.03;10211821;28;20451;-77
2023/03/30 09:59:44;;;;;;;8.30;3.45;;;;;;;8.90;52.82;100058.88;10212492;29;20539;-88
2023/03/30 10:05:00;;;;;;;5.97;2.80;;;;;;;9.27;53.17;100134.47;10217278;29;20123;-91
2023/03/30 10:10:26;;;;;;;4.68;2.95;;;;;;;9.38;53.03;100186.31;10218047;28;20126;-82
2023/03/30 10:15:31;;;;;;;6.65;2.63;;;;;;;9.52;51.88;100203.41;10216599;28;20044;-91
2023/03/30 10:20:35;;;;;;;8.13;2.33;;;;;;;9.66;52.05;100201.91;10218229;28;20472;-87
2023/03/30 10:25:39;;;;;;;5.77;2.60;;;;;;;9.65;52.23;100165.78;10219414;29;20047;-83
2023/03/30 10:30:39;;;;;;;8.98;2.38;;;;;;;9.68;51.48;100162.78;10214661;29;20276;-91
2023/03/30 10:35:40;;;;;;;3.60;2.53;;;;;;;9.74;51.33;100193.97;10210831;29;20127;-87
2023/03/30 10:40:44;;;;;;;3.60;2.22;;;;;;;9.77;50.54;100186.50;10211793;28;20410;-93
2023/03/30 10:45:51;;;;;;;4.88;2.60;;;;;;;9.42;51.13;100081.59;10212218;29;20050;-78
2023/03/30 10:51:05;;;;;;;6.53;2.58;;;;;;;9.59;51.74;100067.31;10211768;29;20051;-89
2023/03/30 10:56:36;;;;;;;4.78;2.42;;;;;;;10.16;50.20;100155.75;10210967;28;20071;-84
2023/03/30 11:01:52;;;;;;;3.28;2.15;;;;;;;10.14;49.46;100136.50;10209097;28;20056;-86
2023/03/30 11:06:55;;;;;;;6.30;2.20;;;;;;;9.84;50.02;100128.28;10209386;28;20046;-82
2023/03/30 11:12:04;;;;;;;5.93;2.00;;;;;;;9.98;50.18;100170.06;10210152;28;20079;-76
2023/03/30 11:17:11;;;;;;;7.53;2.33;;;;;;;10.00;50.10;100165.41;10209504;28;20067;-93
2023/03/30 11:22:37;;;;;;;3.38;2.30;;;;;;;10.29;49.66;100172.03;10209942;29;20582;-83
2023/03/30 11:27:47;;;;;;;2.53;1.73;;;;;;;10.32;50.09;100154.91;10208547;28;20035;-85
2023/03/30 11:33:26;;;;;;;3.80;1.92;;;;;;;10.07;48.29;100123.91;10208558;29;20118;-79
2023/03/30 11:38:45;;;;;;;3.75;1.70;;;;;;;10.33;46.41;100172.50;10208760;29;20498;-78
2023/03/30 11:43:46;;;;;;;3.20;1.55;;;;;;;10.58;47.34;100203.28;10210123;28;20557;-88
2023/03/30 11:48:56;;;;;;;17.73;2.00;;;;;;;10.51;47.87;100191.69;10209148;29;20097;-90
2023/03/30 11:54:15;;;;;;;3.05;1.20;;;;;;;10.67;46.91;100185.50;10208118;29;20047;-80
2023/03/30 11:59:47;;;;;;;5.15;1.80;;;;;;;9.75;47.06;100036.44;10203588;28;20040;-87
2023/03/30 12:04:54;;;;;;;3.13;1.90;;;;;;;10.35;47.01;100173.16;10167946;28;20048;-79
2023/03/30 12:10:02;;;;;;;5.15;1.60;;;;;;;10.33;46.46;100144.13;10167832;29;20143;-78
2023/03/30 12:15:21;;;;;;;4.22;1.63;;;;;;;10.35;45.56;100174.00;10168444;29;20040;-88
2023/03/30 12:20:30;;;;;;;4.00;1.50;;;;;;;10.32;46.86;100166.38;10168494;29;20110;-89
2023/03/30 12:25:56;;;;;;;2.70;1.38;;;;;;;10.43;44.21;100166.00;10203298;29;20598;-83
2023/03/30 12:30:59;;;;;;;3.63;1.45;;;;;;;10.50;45.62;100153.69;10206892;28;20541;-87
2023/03/30 12:36:02;;;;;;;3.45;1.35;;;;;;;10.07;44.09;100125.75;10181231;29;20044;-91
2023/03/30 12:41:15;;;;;;;2.10;1.10;;;;;;;9.89;43.05;100128.59;10178619;29;20058;-87
2023/03/30 12:46:41;;;;;;;4.43;1.25;;;;;;;9.84;42.52;100133.59;10183540;29;20043;-83
2023/03/30 12:51:59;;;;;;;4.43;1.38;;;;;;;10.16;43.19;100195.56;10195192;28;20056;-85
2023/03/30 12:57:30;;;;;;;3.13;1.30;;;;;;;10.31;41.99;100201.88;10202951;28;20050;-88
2023/03/30 13:02:37;;;;;;;3.83;1.80;;;;;;;10.16;43.25;100200.88;10176203;29;20067;-86
2023/03/30 13:07:39;;;;;;;3.10;1.50;;;;;;;9.86;43.34;100197.94;10205033;29;20464;-88
2023/03/30 13:12:40;;;;;;;3.10;1.40;;;;;;;9.78;41.83;100198.78;10214806;29;20044;-89
2023/03/30 13:18:02;;;;;;;3.20;1.30;;;;;;;9.85;41.39;100190.97;10206320;29;20439;-81
2023/03/30 13:23:08;;;;;;;3.65;1.17;;;;;;;9.78;41.95;100205.88;10214583;29;20634;-89
2023/03/30 13:28:54;;;;;;;4.43;1.27;;;;;;;9.91;43.70;100192.97;10210846;28;20388;-89
2023/03/30 13:34:09;;;;;;;1.95;1.05;;;;;;;9.75;43.08;100195.59;10156366;29;20056;-89
2023/03/30 13:39:40;;;;;;;3.55;1.48;;;;;;;9.22;43.89;100138.59;10217658;28;20385;-89
2023/03/30 13:44:43;;;;;;;4.63;1.50;;;;;;;9.51;44.35;100233.56;10294936;28;20573;-90
2023/03/30 13:49:44;;;;;;;4.23;2.23;;;;;;;8.84;44.58;100169.97;10302348;28;20037;-88
2023/03/30 13:54:46;;;;;;;4.70;1.48;;;;;;;8.88;45.40;100224.28;10290169;28;20041;-89
2023/03/30 13:59:53;;;;;;;3.80;1.60;;;;;;;8.88;44.87;100224.28;10302586;28;20045;-91
2023/03/30 14:04:54;;;;;;;2.63;1.38;;;;;;;8.55;44.52;100181.78;10289664;28;20065;-78
2023/03/30 14:10:27;;;;;;;4.05;1.15;;;;;;;8.40;44.94;100226.53;10296422;28;20460;-86
2023/03/30 14:15:37;;;;;;;3.47;1.67;;;;;;;7.85;45.47;100210.09;10281333;28;20044;-88
2023/03/30 14:20:50;;;;;;;4.22;1.45;;;;;;;7.51;45.88;100201.06;10295486;28;20055;-92
2023/03/30 14:26:00;;;;;;;7.10;1.45;;;;;;;7.82;45.23;100264.13;10296412;28;20043;-93
2023/03/30 14:31:09;;;;;;;3.10;1.30;;;;;;;7.74;45.43;100275.44;10294172;28;20508;-90
2023/03/30 14:36:14;;;;;;;2.35;1.17;;;;;;;7.48;45.61;100256.06;10297805;28;20044;-87
2023/03/30 14:41:30;;;;;;;2.40;1.10;;;;;;;7.48;45.48;100285.97;10301070;28;20039;-92
2023/03/30 14:46:42;;;;;;;5.40;1.17;;;;;;;7.28;46.36;100260.63;10285245;28;20055;-85
2023/03/30 14:51:47;;;;;;;2.20;0.98;;;;;;;7.28;46.79;100293.16;10199401;29;20077;-89
2023/03/30 14:57:07;;;;;;;2.85;1.10;;;;;;;7.22;46.60;100316.72;10186385;29;20040;-88
2023/03/30 15:02:21;;;;;;;5.68;1.40;;;;;;;7.12;46.89;100308.84;10193201;29;20055;-87
2023/03/30 15:07:23;;;;;;;1.95;0.98;;;;;;;7.25;47.08;100341.03;10195872;29;20037;-87
2023/03/30 15:12:31;;;;;;;4.35;1.15;;;;;;;7.06;46.97;100335.84;10168796;29;20044;-83
2023/03/30 15:17:33;;;;;;;3.20;1.20;;;;;;;7.00;46.67;100341.66;10170581;28;20075;-86
2023/03/30 15:22:43;;;;;;;3.08;1.40;;;;;;;6.58;47.12;100291.94;10170500;28;20040;-85
2023/03/30 15:28:06;;;;;;;7.10;1.55;;;;;;;6.98;47.43;100380.63;10170151;29;20063;-85
2023/03/30 15:33:18;;;;;;;2.20;1.25;;;;;;;6.47;47.68;100300.88;10170785;29;20039;-78
2023/03/30 15:38:35;;;;;;;5.28;1.15;;;;;;;6.35;47.93;100300.19;10204157;29;20055;-80
2023/03/30 15:43:52;;;;;;;6.95;1.42;;;;;;;6.37;48.12;100306.16;10206564;29;20177;-78
2023/03/30 15:48:53;;;;;;;2.53;1.20;;;;;;;6.81;49.03;100411.22;10207376;29;20630;-82
2023/03/30 15:54:02;;;;;;;2.60;1.00;;;;;;;6.68;48.91;100398.34;10207146;28;20046;-76
2023/03/30 15:59:03;;;;;;;4.57;1.38;;;;;;;6.55;49.69;100400.41;10206688;29;20071;-79
2023/03/30 16:04:05;;;;;;;2.92;1.20;;;;;;;6.16;50.02;100352.94;10207209;29;20174;-77
2023/03/30 16:09:06;;;;;;;5.90;1.67;;;;;;;6.56;50.76;100437.25;10195797;28;20182;-75
2023/03/30 16:14:13;;;;;;;3.15;1.40;;;;;;;6.52;51.11;100449.06;10308466;28;20036;-75
2023/03/30 16:19:18;;;;;;;4.15;1.67;;;;;;;6.50;51.12;100456.28;10280838;28;20070;-76
2023/03/30 16:24:18;;;;;;;15.40;6.78;;;;;;;6.67;51.41;100473.25;10239548;28;20107;-75
2023/03/30 16:29:22;;;;;;;4.55;2.42;;;;;;;6.50;52.93;100458.09;10304664;28;20561;-75
2023/03/30 16:34:24;;;;;;;8.90;3.20;;;;;;;6.50;52.50;100458.09;10231632;28;20040;-88
2023/03/30 16:39:28;;;;;;;6.50;2.53;;;;;;;6.31;53.36;100475.59;10205946;29;20090;-87
2023/03/30 16:44:29;;;;;;;4.40;2.53;;;;;;;6.05;54.02;100504.25;10204656;28;20032;-81
2023/03/30 16:49:30;;;;;;;34.08;15.50;;;;;;;5.71;54.56;100482.59;10206365;29;20119;-88
2023/03/30 16:54:30;;;;;;;41.40;19.00;;;;;;;5.84;55.60;100490.28;10197765;28;20055;-83
2023/03/30 16:59:32;;;;;;;24.85;11.88;;;;;;;5.98;55.73;100516.31;10205264;29;20511;-84
2023/03/30 17:04:32;;;;;;;22.70;9.23;;;;;;;4.94;56.25;100375.94;10196711;29;20055;-82
2023/03/30 17:09:33;;;;;;;16.25;8.05;;;;;;;5.65;56.80;100535.84;10177484;29;20122;-77
2023/03/30 17:14:34;;;;;;;18.00;9.80;;;;;;;5.28;57.48;100477.56;10186401;29;20071;-78
2023/03/30 17:19:35;;;;;;;24.25;11.45;;;;;;;5.59;57.67;100537.19;10187640;29;20158;-78
2023/03/30 17:24:35;;;;;;;23.48;9.93;;;;;;;5.58;57.83;100553.16;10191817;29;20047;-78
2023/03/30 17:29:36;;;;;;;22.15;8.95;;;;;;;5.56;57.92;100565.63;10210987;29;20044;-78
2023/03/30 17:34:37;;;;;;;18.00;6.97;;;;;;;5.57;58.76;100562.03;10210606;29;20047;-78
2023/03/30 17:39:38;;;;;;;12.80;5.68;;;;;;;5.52;58.88;100564.22;10211333;29;20047;-78
2023/03/30 17:44:39;;;;;;;8.10;4.80;;;;;;;5.37;58.99;100564.53;10210881;29;20496;-78
2023/03/30 17:49:40;;;;;;;4.88;3.10;;;;;;;5.21;58.88;100556.28;10210444;29;20050;-78
2023/03/30 17:54:40;;;;;;;5.85;2.88;;;;;;;4.99;59.05;100541.41;10209696;29;20562;-78
2023/03/30 17:59:41;;;;;;;7.68;3.15;;;;;;;4.82;59.19;100534.91;10194485;29;20052;-78
2023/03/30 18:04:42;;;;;;;5.85;2.47;;;;;;;4.31;59.82;100478.53;10209245;29;20039;-79
2023/03/30 18:09:43;;;;;;;4.88;2.70;;;;;;;4.43;60.24;100491.63;10206291;29;20048;-78
2023/03/30 18:14:43;;;;;;;4.43;2.15;;;;;;;4.39;60.72;100495.47;10171407;29;20044;-78
2023/03/30 18:19:44;;;;;;;6.97;2.53;;;;;;;3.84;60.60;100429.78;10170929;29;20147;-77
2023/03/30 18:24:45;;;;;;;4.60;2.40;;;;;;;4.02;61.18;100483.50;10171078;29;20055;-79
2023/03/30 18:29:46;;;;;;;7.00;2.53;;;;;;;3.93;61.34;100512.31;10169810;29;20496;-79
2023/03/30 18:34:46;;;;;;;6.60;3.55;;;;;;;3.74;62.09;100510.28;10169711;29;20044;-78
2023/03/30 18:39:47;;;;;;;5.47;3.08;;;;;;;3.65;62.99;100517.94;10169333;29;20048;-78
2023/03/30 18:44:48;;;;;;;6.53;3.60;;;;;;;3.63;63.18;100525.09;10170311;29;20047;-79
2023/03/30 18:49:49;;;;;;;9.90;4.40;;;;;;;3.70;63.56;100529.88;10169308;29;20047;-77
2023/03/30 18:54:49;;;;;;;7.30;4.07;;;;;;;3.22;63.76;100478.38;10168956;29;20044;-77
2023/03/30 18:59:50;;;;;;;11.23;5.65;;;;;;;2.11;64.27;100338.16;10169471;29;20036;-78
2023/03/30 19:04:53;;;;;;;7.90;3.95;;;;;;;2.73;64.18;100440.13;10169269;29;20048;-78
2023/03/30 19:09:54;;;;;;;7.75;4.18;;;;;;;3.04;64.73;100516.53;10174516;28;20036;-78
2023/03/30 19:14:54;;;;;;;12.38;4.82;;;;;;;2.69;65.12;100489.34;10193647;29;20113;-78
2023/03/30 19:19:55;;;;;;;9.55;4.43;;;;;;;2.63;66.04;100509.94;10205312;29;20051;-78
2023/03/30 19:24:56;;;;;;;8.00;4.43;;;;;;;2.14;66.47;100448.81;10204750;29;20094;-78
2023/03/30 19:29:57;;;;;;;13.25;4.60;;;;;;;2.45;67.35;100497.25;10204010;29;20043;-78
2023/03/30 19:34:58;;;;;;;12.30;3.75;;;;;;;2.39;67.88;100509.94;10203246;29;20036;-78
2023/03/30 19:39:58;;;;;;;16.92;6.95;;;;;;;2.24;67.86;100519.75;10204357;29;20054;-78
2023/03/30 19:45:01;;;;;;;14.65;5.97;;;;;;;2.15;68.28;100528.28;10179605;28;20099;-78
2023/03/30 19:50:04;;;;;;;8.85;4.03;;;;;;;2.10;68.88;100531.22;10164648;29;20055;-78
2023/03/30 19:55:07;;;;;;;8.32;4.10;;;;;;;1.66;68.75;100514.22;10162623;29;20043;-78
2023/03/30 20:00:14;;;;;;;11.07;4.00;;;;;;;1.67;69.75;100539.47;10164687;29;20118;-79
2023/03/30 20:05:16;;;;;;;12.25;6.50;;;;;;;1.69;69.88;100555.91;10162509;29;20042;-80
2023/03/30 20:10:20;;;;;;;14.73;8.43;;;;;;;1.22;70.64;100460.53;10163530;29;20098;-78
2023/03/30 20:15:24;;;;;;;13.32;8.02;;;;;;;1.64;70.64;100544.91;10162915;29;20040;-78
2023/03/30 20:20:25;;;;;;;18.88;9.88;;;;;;;1.30;70.30;100520.22;10164239;29;20075;-79
2023/03/30 20:25:26;;;;;;;13.98;6.32;;;;;;;1.32;70.73;100519.16;10164347;29;20151;-79
2023/03/30 20:30:27;;;;;;;10.40;6.10;;;;;;;0.97;70.74;100457.94;10163569;29;20094;-79
2023/03/30 20:35:28;;;;;;;11.38;6.35;;;;;;;1.30;70.88;100531.53;10165490;29;20032;-79
2023/03/30 20:40:30;;;;;;;13.50;7.00;;;;;;;1.17;71.37;100519.34;10165187;29;20131;-79
2023/03/30 20:45:31;;;;;;;18.48;8.52;;;;;;;1.15;71.43;100503.78;10167305;29;20403;-80
2023/03/30 20:50:32;;;;;;;18.63;7.18;;;;;;;1.29;71.86;100511.53;10166356;29;20134;-79
2023/03/30 20:55:33;;;;;;;9.88;5.00;;;;;;;0.84;71.31;100464.00;10165915;29;20066;-79
2023/03/30 21:00:34;;;;;;;11.60;5.38;;;;;;;1.09;72.01;100525.13;10172493;29;20421;-78
2023/03/30 21:05:34;;;;;;;17.75;6.47;;;;;;;1.01;71.97;100509.91;10173238;29;20048;-79
2023/03/30 21:10:38;;;;;;;20.85;10.48;;;;;;;0.96;72.39;100511.16;10172419;29;20039;-78
2023/03/30 21:15:39;;;;;;;14.27;6.78;;;;;;;0.73;73.13;100484.78;10173624;29;20048;-79
2023/03/30 21:20:40;;;;;;;13.77;6.10;;;;;;;0.93;72.81;100507.00;10172356;29;20056;-80
2023/03/30 21:25:41;;;;;;;10.57;5.20;;;;;;;1.08;73.31;100505.13;10171527;29;20048;-79
2023/03/30 21:30:42;;;;;;;12.20;5.53;;;;;;;1.05;73.04;100497.50;10173121;29;20055;-81
2023/03/30 21:35:47;;;;;;;8.90;4.07;;;;;;;1.16;73.25;100513.28;10172780;29;20055;-79
2023/03/30 21:40:58;;;;;;;5.35;3.33;;;;;;;1.33;74.29;100509.53;10172047;29;20134;-77
2023/03/30 21:46:01;;;;;;;6.13;3.28;;;;;;;1.47;73.25;100509.44;10172163;29;20135;-79
2023/03/30 21:51:12;;;;;;;6.65;3.35;;;;;;;1.56;74.78;100513.19;10170425;29;20055;-80
2023/03/30 21:56:14;;;;;;;6.47;3.00;;;;;;;1.39;73.67;100471.63;10170522;29;20036;-79
2023/03/30 22:01:16;;;;;;;7.00;3.10;;;;;;;1.26;73.50;100448.94;10171657;29;20048;-79
2023/03/30 22:06:17;;;;;;;5.10;2.85;;;;;;;1.06;73.60;100423.28;10170936;29;20048;-79
2023/03/30 22:11:23;;;;;;;6.25;3.20;;;;;;;1.60;73.76;100512.03;10170389;29;20528;-78
2023/03/30 22:16:35;;;;;;;5.97;3.67;;;;;;;1.61;74.20;100511.09;10170781;29;20064;-79
2023/03/30 22:21:36;;;;;;;5.15;3.03;;;;;;;1.56;73.34;100516.66;10188809;29;20499;-79
2023/03/30 22:26:37;;;;;;;6.75;3.35;;;;;;;0.96;73.39;100417.84;10180644;29;20119;-79
2023/03/30 22:31:41;;;;;;;6.35;3.42;;;;;;;1.34;73.88;100491.09;10169562;29;20131;-79
2023/03/30 22:36:42;;;;;;;6.87;3.70;;;;;;;1.18;73.19;100502.72;10208127;29;20471;-79
2023/03/30 22:41:42;;;;;;;7.32;4.72;;;;;;;0.92;73.57;100497.47;10209982;29;20049;-79
2023/03/30 22:46:43;;;;;;;10.93;5.10;;;;;;;0.74;73.85;100496.91;10209001;29;20039;-79
2023/03/30 22:51:49;;;;;;;10.27;4.97;;;;;;;0.65;74.48;100489.66;10182018;29;20055;-79
2023/03/30 22:56:49;;;;;;;15.38;5.05;;;;;;;0.43;74.90;100457.09;10170644;29;20143;-79
2023/03/30 23:01:50;;;;;;;12.30;4.47;;;;;;;0.62;74.76;100492.47;10169810;29;20155;-79
2023/03/30 23:06:53;;;;;;;13.43;4.72;;;;;;;0.56;75.04;100483.25;10170264;29;20463;-79
2023/03/30 23:11:54;;;;;;;12.15;5.00;;;;;;;0.24;74.48;100461.84;10169241;29;20148;-79
2023/03/30 23:16:56;;;;;;;10.45;4.63;;;;;;;-0.70;74.74;100318.16;10169021;29;20632;-79
2023/03/30 23:21:57;;;;;;;8.82;3.70;;;;;;;0.11;75.35;100438.28;10168928;29;20052;-79
2023/03/30 23:26:58;;;;;;;8.23;3.92;;;;;;;0.27;74.70;100459.03;10169667;29;20569;-80
2023/03/30 23:31:58;;;;;;;7.63;3.80;;;;;;;-0.05;75.25;100433.22;10168932;29;20072;-80
2023/03/30 23:36:59;;;;;;;7.60;3.85;;;;;;;-0.07;75.76;100448.13;10168224;29;20098;-80
2023/03/30 23:42:00;;;;;;;7.07;3.45;;;;;;;-0.60;75.52;100371.44;10168571;29;20048;-81